Time;durP1;ratioP1;P1;durP2;ratioP2;P2;SDS_P1;SDS_P2;PMS_P1;PMS_P2;Temp;Humidity;BMP_temperature;BMP_pressure;BME280_temperature;BME280_humidity;BME280_pressure;Samples;Min_cycle;Max_cycle;Signal;HPM_P1;HPM_P2
2022/02/25 00:02:25;;;;;;;1.57;0.63;;;;;;;8.52;64.65;99887.17;1640739;87;21282;-73
2022/02/25 00:04:51;;;;;;;0.65;0.42;;;;;;;8.42;64.64;99898.52;1640698;87;20979;-73
2022/02/25 00:07:18;;;;;;;2.33;0.90;;;;;;;8.33;64.64;99915.00;1640751;87;20935;-73
2022/02/25 00:09:44;;;;;;;1.57;0.80;;;;;;;8.23;64.62;99927.19;1634270;86;20915;-73
2022/02/25 00:12:10;;;;;;;1.30;1.10;;;;;;;8.15;64.61;99929.48;1639571;87;20934;-73
2022/02/25 00:14:36;;;;;;;0.97;0.60;;;;;;;8.05;64.62;99930.07;1640894;87;20951;-73
2022/02/25 00:17:02;;;;;;;5.93;0.40;;;;;;;7.98;64.60;99940.06;1677491;84;20867;-73
2022/02/25 00:19:28;;;;;;;0.90;0.35;;;;;;;7.88;64.52;99933.36;1668478;84;20902;-73
2022/02/25 00:21:54;;;;;;;1.17;0.30;;;;;;;7.79;64.53;99934.81;1675200;85;20910;-73
2022/02/25 00:24:20;;;;;;;0.30;0.30;;;;;;;7.71;64.54;99946.52;1685127;85;20895;-72
2022/02/25 00:26:47;;;;;;;0.78;0.30;;;;;;;7.66;64.53;99953.45;1684989;85;20882;-73
2022/02/25 00:29:13;;;;;;;0.40;0.30;;;;;;;7.57;64.44;99954.43;1666074;85;20906;-72
2022/02/25 00:31:39;;;;;;;0.25;0.25;;;;;;;7.49;64.49;99963.13;1680513;85;20906;-72
2022/02/25 00:34:05;;;;;;;1.30;0.30;;;;;;;7.43;64.48;99973.50;1679583;85;20858;-72
2022/02/25 00:36:31;;;;;;;0.30;0.30;;;;;;;7.36;64.51;99988.59;1684873;85;21393;-73
2022/02/25 00:38:57;;;;;;;0.67;0.30;;;;;;;7.29;64.49;99995.10;1685016;84;20938;-73
2022/02/25 00:41:23;;;;;;;0.87;0.30;;;;;;;7.22;64.42;99988.36;1683662;85;20942;-73
2022/02/25 00:43:49;;;;;;;0.30;0.20;;;;;;;7.16;64.43;99992.30;1658367;85;20925;-73
2022/02/25 00:46:16;;;;;;;1.77;0.23;;;;;;;7.11;64.41;100001.78;1676724;84;21419;-73
2022/02/25 00:48:42;;;;;;;0.53;0.25;;;;;;;7.04;64.44;100017.29;1680043;85;20950;-73
2022/02/25 00:51:08;;;;;;;2.87;0.37;;;;;;;6.96;64.43;100039.22;1670233;85;21640;-73
2022/02/25 00:53:34;;;;;;;2.00;0.23;;;;;;;6.90;64.43;100031.14;1675032;85;20973;-73
2022/02/25 00:55:59;;;;;;;0.30;0.20;;;;;;;6.85;64.43;100029.48;1684013;85;20988;-73
2022/02/25 00:58:26;;;;;;;0.20;0.20;;;;;;;6.79;64.48;100037.25;1677850;85;20953;-73
2022/02/25 01:00:54;;;;;;;1.10;0.20;;;;;;;6.74;64.48;100053.18;1677390;84;20942;-73
2022/02/25 01:03:20;;;;;;;0.20;0.20;;;;;;;6.68;64.52;100065.64;1672414;84;20953;-72
2022/02/25 01:05:46;;;;;;;0.30;0.30;;;;;;;6.63;64.51;100077.68;1684787;85;20850;-73
2022/02/25 01:08:12;;;;;;;0.20;0.20;;;;;;;6.54;64.78;100091.88;1684987;84;21549;-73
2022/02/25 01:10:38;;;;;;;0.80;0.30;;;;;;;6.44;64.67;100092.81;1674208;85;20937;-73
2022/02/25 01:13:04;;;;;;;0.40;0.20;;;;;;;6.36;64.81;100095.44;1675308;85;20974;-73
2022/02/25 01:15:31;;;;;;;1.40;0.47;;;;;;;6.30;64.79;100113.02;1684398;84;21100;-72
2022/02/25 01:17:57;;;;;;;1.12;0.50;;;;;;;6.24;64.90;100125.05;1684547;84;21493;-72
2022/02/25 01:20:24;;;;;;;0.97;0.70;;;;;;;6.19;64.90;100127.67;1678692;85;20926;-72
2022/02/25 01:22:50;;;;;;;0.55;0.40;;;;;;;6.15;64.95;100128.98;1684439;85;20938;-72
2022/02/25 01:25:16;;;;;;;0.25;0.25;;;;;;;6.09;65.18;100129.87;1679033;85;20981;-73
2022/02/25 01:27:43;;;;;;;0.10;0.10;;;;;;;6.02;64.93;100127.34;1679137;85;20971;-73
2022/02/25 01:30:11;;;;;;;0.53;0.20;;;;;;;5.96;64.91;100134.21;1684413;85;20949;-73
2022/02/25 01:32:38;;;;;;;0.25;0.20;;;;;;;5.89;65.02;100131.25;1681879;85;20899;-73
2022/02/25 01:35:06;;;;;;;0.10;0.10;;;;;;;5.87;64.99;100123.10;1684512;85;20930;-73
2022/02/25 01:37:32;;;;;;;;;;;;;;;5.85;65.03;100120.97;1686991;84;20918;-73
2022/02/25 01:39:58;;;;;;;0.55;0.20;;;;;;;5.81;65.18;100134.67;1684183;84;20164;-73
2022/02/25 01:42:25;;;;;;;0.62;0.20;;;;;;;5.77;65.01;100135.55;1684536;85;20938;-73
2022/02/25 01:44:51;;;;;;;0.53;0.17;;;;;;;5.74;65.05;100154.37;1684769;85;21423;-73
2022/02/25 01:47:18;;;;;;;1.37;0.40;;;;;;;5.73;65.04;100154.38;1683286;85;20910;-73
2022/02/25 01:49:44;;;;;;;0.40;0.20;;;;;;;5.71;65.07;100159.55;1677040;85;21391;-73
2022/02/25 01:52:17;;;;;;;0.33;0.30;;;;;;;5.69;65.12;100159.98;1684460;84;20910;-73
2022/02/25 01:54:45;;;;;;;1.15;0.23;;;;;;;5.68;65.13;100160.83;1678554;85;20950;-73
2022/02/25 01:57:15;;;;;;;0.40;0.40;;;;;;;5.68;65.14;100166.39;1672049;85;20906;-73
2022/02/25 01:59:42;;;;;;;0.62;0.30;;;;;;;5.66;65.15;100172.81;1684481;85;21367;-73
2022/02/25 02:02:09;;;;;;;0.47;0.47;;;;;;;5.65;65.21;100181.36;1671137;85;20962;-73
2022/02/25 02:04:35;;;;;;;0.70;0.45;;;;;;;5.62;65.25;100182.23;1663192;85;21691;-73
2022/02/25 02:07:02;;;;;;;0.75;0.50;;;;;;;5.60;65.21;100185.22;1676370;85;20913;-72
2022/02/25 02:09:28;;;;;;;;;;;;;;;5.58;65.43;100187.37;1686932;85;20941;-72
2022/02/25 02:11:56;;;;;;;0.50;0.50;;;;;;;5.56;65.48;100200.63;1684337;84;20105;-73
2022/02/25 02:14:24;;;;;;;0.30;0.30;;;;;;;5.54;65.35;100212.59;1672513;84;20882;-73
2022/02/25 02:16:54;;;;;;;0.37;0.37;;;;;;;5.52;65.41;100202.77;1665344;84;20956;-73
2022/02/25 02:19:21;;;;;;;0.93;0.30;;;;;;;5.49;65.58;100222.86;1696901;83;20918;-73
2022/02/25 02:21:53;;;;;;;0.40;0.40;;;;;;;5.45;65.49;100222.44;1677639;84;20922;-73
2022/02/25 02:24:21;;;;;;;0.47;0.40;;;;;;;5.43;65.54;100244.66;1701178;84;20934;-73
2022/02/25 02:26:49;;;;;;;0.47;0.40;;;;;;;5.42;65.50;100238.25;1699271;84;20914;-73
2022/02/25 02:29:15;;;;;;;0.62;0.45;;;;;;;5.39;65.59;100238.25;1677818;84;21025;-72
2022/02/25 02:31:42;;;;;;;0.40;0.40;;;;;;;5.37;65.65;100247.66;1699722;83;21093;-72
2022/02/25 02:34:12;;;;;;;0.40;0.37;;;;;;;5.36;65.64;100253.64;1699870;84;21109;-72
2022/02/25 02:36:39;;;;;;;0.33;0.33;;;;;;;5.31;65.63;100249.37;1699695;83;20875;-72
2022/02/25 02:39:08;;;;;;;0.30;0.30;;;;;;;5.31;65.63;100254.92;1686156;83;20957;-73
2022/02/25 02:41:35;;;;;;;0.90;0.30;;;;;;;5.30;65.60;100248.09;1691985;83;20918;-72
2022/02/25 02:44:02;;;;;;;0.28;0.20;;;;;;;5.27;65.74;100257.91;1701014;84;20934;-72
2022/02/25 02:46:28;;;;;;;0.30;0.30;;;;;;;5.20;65.90;100274.14;1686571;84;20879;-73
2022/02/25 02:48:54;;;;;;;1.20;0.53;;;;;;;5.13;65.88;100278.88;1701620;83;20906;-72
2022/02/25 02:51:20;;;;;;;1.27;0.30;;;;;;;5.07;66.19;100294.67;1696982;83;20863;-72
2022/02/25 02:53:46;;;;;;;0.47;0.20;;;;;;;4.83;65.95;100303.16;1701102;84;21402;-72
2022/02/25 02:56:13;;;;;;;0.30;0.20;;;;;;;4.83;65.95;100303.16;1697680;83;21267;-73
2022/02/25 02:58:39;;;;;;;1.92;0.30;;;;;;;4.67;66.16;100320.65;1688382;83;20878;-73
2022/02/25 03:01:06;;;;;;;0.20;0.20;;;;;;;4.51;66.17;100326.14;1699066;84;20919;-73
2022/02/25 03:03:32;;;;;;;0.10;0.08;;;;;;;4.38;66.25;100323.09;1701506;84;20911;-73
2022/02/25 03:05:58;;;;;;;0.23;0.23;;;;;;;4.27;66.35;100331.58;1695007;84;20906;-73
2022/02/25 03:08:26;;;;;;;0.25;0.10;;;;;;;4.20;66.46;100335.37;1690788;84;20902;-72
2022/02/25 03:10:52;;;;;;;0.53;0.20;;;;;;;4.13;66.60;100354.12;1693809;84;20874;-72
2022/02/25 03:13:20;;;;;;;1.00;0.62;;;;;;;4.06;66.45;100364.75;1701115;84;20935;-73
2022/02/25 03:15:47;;;;;;;1.20;0.37;;;;;;;3.98;66.64;100366.39;1690869;84;20942;-73
2022/02/25 03:18:15;;;;;;;1.07;0.20;;;;;;;3.93;66.83;100369.34;1701333;84;20915;-73
2022/02/25 03:20:41;;;;;;;1.52;0.20;;;;;;;3.88;66.85;100370.59;1695780;83;20930;-72
2022/02/25 03:23:07;;;;;;;0.25;0.25;;;;;;;3.80;67.17;100354.33;1681677;84;21331;-72
2022/02/25 03:25:33;;;;;;;0.10;0.10;;;;;;;3.72;67.17;100380.27;1701132;84;20891;-72
2022/02/25 03:27:59;;;;;;;0.80;0.23;;;;;;;3.65;67.05;100395.12;1701648;84;20878;-72
2022/02/25 03:30:25;;;;;;;0.37;0.20;;;;;;;3.60;67.15;100395.11;1691519;83;20874;-73
2022/02/25 03:32:51;;;;;;;0.40;0.10;;;;;;;3.55;67.48;100395.92;1701684;84;21094;-72
2022/02/25 03:35:19;;;;;;;0.10;0.10;;;;;;;3.50;67.27;100397.58;1701711;83;20902;-72
2022/02/25 03:37:46;;;;;;;0.13;0.10;;;;;;;3.45;67.26;100418.40;1696834;84;20922;-73
2022/02/25 03:40:13;;;;;;;0.13;0.13;;;;;;;3.39;67.32;100413.22;1701683;84;20871;-73
2022/02/25 03:42:40;;;;;;;0.30;0.30;;;;;;;3.33;67.29;100416.58;1695316;83;20910;-73
2022/02/25 03:45:08;;;;;;;1.10;0.25;;;;;;;3.27;67.45;100419.92;1696699;83;20946;-72
2022/02/25 03:47:34;;;;;;;0.50;0.10;;;;;;;3.21;67.73;100425.39;1697522;84;20907;-72
2022/02/25 03:50:02;;;;;;;0.65;0.13;;;;;;;3.16;67.56;100427.03;1688447;84;20859;-72
2022/02/25 03:52:30;;;;;;;0.20;0.05;;;;;;;3.11;67.47;100435.10;1699980;84;21013;-73
2022/02/25 03:54:56;;;;;;;0.60;0.20;;;;;;;3.05;67.43;100437.58;1699900;83;21080;-72
2022/02/25 03:57:22;;;;;;;0.70;0.20;;;;;;;3.01;67.53;100435.83;1692861;83;20906;-73
2022/02/25 03:59:48;;;;;;;0.88;0.13;;;;;;;2.97;67.66;100439.63;1689149;84;21072;-73
2022/02/25 04:02:14;;;;;;;0.20;0.20;;;;;;;2.91;67.62;100440.83;1674176;84;21029;-73
2022/02/25 04:04:40;;;;;;;2.17;0.20;;;;;;;2.88;67.65;100444.63;1693030;83;20938;-73
2022/02/25 04:07:07;;;;;;;4.03;0.70;;;;;;;2.84;67.65;100444.56;1699757;83;21805;-72
2022/02/25 04:09:33;;;;;;;0.47;0.20;;;;;;;2.79;67.75;100446.20;1694833;83;20938;-72
2022/02/25 04:12:01;;;;;;;0.47;0.30;;;;;;;2.75;67.78;100447.00;1700149;84;21627;-72
2022/02/25 04:14:26;;;;;;;1.10;0.42;;;;;;;2.72;67.86;100455.48;1698561;83;21079;-72
2022/02/25 04:16:52;;;;;;;0.67;0.43;;;;;;;2.69;67.86;100446.50;1684803;84;20981;-72
2022/02/25 04:19:19;;;;;;;1.00;0.20;;;;;;;2.66;67.89;100459.22;1698696;84;20989;-72
2022/02/25 04:21:46;;;;;;;1.32;0.23;;;;;;;2.65;67.95;100460.06;1699634;82;20961;-72
2022/02/25 04:24:13;;;;;;;1.87;0.47;;;;;;;2.63;68.00;100457.48;1695428;84;20970;-72
2022/02/25 04:26:39;;;;;;;;;;;;;;;2.61;67.96;100465.54;1702475;84;21044;-72
2022/02/25 04:29:06;;;;;;;0.80;0.80;;;;;;;2.61;68.15;100473.20;1699881;84;20146;-72
2022/02/25 04:31:32;;;;;;;2.72;0.60;;;;;;;2.58;68.03;100472.33;1699106;83;20962;-72
2022/02/25 04:33:58;;;;;;;2.45;0.80;;;;;;;2.56;68.10;100479.96;1691176;84;21536;-72
2022/02/25 04:36:24;;;;;;;5.35;1.07;;;;;;;2.55;68.11;100487.18;1691270;83;21545;-73
2022/02/25 04:38:52;;;;;;;1.07;0.53;;;;;;;2.53;68.10;100486.72;1699664;84;21570;-72
2022/02/25 04:41:21;;;;;;;2.27;0.90;;;;;;;2.50;68.16;100490.08;1699693;84;21462;-73
2022/02/25 04:43:47;;;;;;;1.00;0.72;;;;;;;2.49;68.23;100493.89;1701265;83;21406;-73
2022/02/25 04:46:21;;;;;;;1.22;0.50;;;;;;;2.48;68.23;100503.23;1692384;84;20886;-73
2022/02/25 04:48:47;;;;;;;0.82;0.53;;;;;;;2.47;68.26;100504.08;1697657;84;20953;-73
2022/02/25 04:51:16;;;;;;;1.37;0.60;;;;;;;2.46;68.26;100509.16;1701661;83;20914;-72
2022/02/25 04:53:45;;;;;;;1.17;0.60;;;;;;;2.44;68.36;100514.65;1701323;83;20895;-72
2022/02/25 04:56:13;;;;;;;2.50;0.72;;;;;;;2.43;68.37;100511.24;1688458;84;21419;-73
2022/02/25 04:58:39;;;;;;;1.77;0.80;;;;;;;2.43;68.40;100515.48;1700389;84;21407;-72
2022/02/25 05:01:06;;;;;;;1.82;0.72;;;;;;;2.43;68.37;100521.87;1697793;82;20973;-72
2022/02/25 05:03:33;;;;;;;1.40;0.95;;;;;;;2.43;68.39;100530.38;1693616;84;21367;-72
2022/02/25 05:06:00;;;;;;;1.62;0.60;;;;;;;2.42;68.45;100535.05;1698875;82;20910;-73
2022/02/25 05:08:27;;;;;;;1.45;0.75;;;;;;;2.43;68.47;100542.28;1696576;82;21467;-73
2022/02/25 05:10:53;;;;;;;;;;;;;;;2.42;68.62;100540.14;1700545;82;20894;-73
2022/02/25 05:13:19;;;;;;;;;;;;;;;2.39;68.91;100538.82;1700541;82;20461;-72
2022/02/25 05:21:05;;;;;;;2.83;1.45;;;;;;;2.39;68.61;100555.41;1679383;85;21502;-72
2022/02/25 05:23:32;;;;;;;1.95;0.90;;;;;;;2.38;68.64;100556.23;1680078;85;21379;-72
2022/02/25 05:25:59;;;;;;;6.90;0.82;;;;;;;2.37;68.60;100564.73;1677632;85;21399;-72
2022/02/25 05:28:25;;;;;;;1.57;0.53;;;;;;;2.35;68.64;100572.77;1677340;84;21435;-72
2022/02/25 05:30:51;;;;;;;5.08;0.80;;;;;;;2.34;68.60;100572.33;1676194;85;21383;-71
2022/02/25 05:33:17;;;;;;;1.47;0.72;;;;;;;2.32;68.68;100577.41;1679737;85;21439;-71
2022/02/25 05:35:44;;;;;;;;;;;;;;;2.30;68.69;100583.32;1672004;84;21245;-70
2022/02/25 05:38:10;;;;;;;5.00;1.02;;;;;;;2.28;68.99;100578.19;1674988;84;20124;-74
2022/02/25 05:40:36;;;;;;;2.72;1.10;;;;;;;2.27;68.79;100585.40;1669211;84;25996;-75
2022/02/25 05:43:03;;;;;;;4.17;0.90;;;;;;;2.24;68.81;100584.08;1661627;85;21359;-74
2022/02/25 05:45:29;;;;;;;4.78;1.30;;;;;;;2.25;68.85;100591.31;1679516;84;21362;-74
2022/02/25 05:47:55;;;;;;;3.40;0.80;;;;;;;2.24;68.82;100598.52;1679520;85;20926;-74
2022/02/25 05:50:23;;;;;;;6.85;1.20;;;;;;;2.21;68.86;100601.02;1667380;85;20953;-73
2022/02/25 05:52:50;;;;;;;3.47;0.78;;;;;;;2.19;68.85;100598.44;1679158;84;21406;-73
2022/02/25 05:55:23;;;;;;;3.05;0.70;;;;;;;2.21;68.92;100609.95;1675286;84;20907;-74
2022/02/25 05:57:50;;;;;;;4.30;0.90;;;;;;;2.20;68.94;100610.78;1669150;85;21398;-74
2022/02/25 06:00:18;;;;;;;3.35;1.00;;;;;;;2.20;68.95;100610.36;1677544;84;21453;-74
2022/02/25 06:02:48;;;;;;;4.00;1.10;;;;;;;2.21;68.94;100609.95;1679164;84;20902;-74
2022/02/25 06:05:15;;;;;;;1.92;0.60;;;;;;;2.21;68.99;100615.05;1676056;84;20871;-74
2022/02/25 06:07:41;;;;;;;9.70;0.88;;;;;;;2.23;68.98;100616.80;1676324;85;20879;-75
2022/02/25 06:10:09;;;;;;;5.30;1.12;;;;;;;2.25;69.04;100618.09;1671744;84;21426;-74
2022/02/25 06:12:37;;;;;;;2.27;0.60;;;;;;;2.30;69.11;100627.97;1679466;85;21465;-73
2022/02/25 06:15:05;;;;;;;3.37;1.00;;;;;;;2.32;69.12;100635.23;1669940;84;21517;-73
2022/02/25 06:17:31;;;;;;;4.08;0.90;;;;;;;2.33;69.08;100632.70;1684242;84;21407;-74
2022/02/25 06:19:57;;;;;;;;;;;;;;;2.38;69.14;100637.89;1698251;84;20907;-74
2022/02/25 06:22:23;;;;;;;4.62;1.05;;;;;;;2.42;69.34;100643.49;1689185;84;20817;-74
2022/02/25 06:24:49;;;;;;;4.70;1.20;;;;;;;2.46;69.20;100643.98;1686987;84;20903;-74
2022/02/25 06:27:16;;;;;;;7.37;1.23;;;;;;;2.52;69.21;100654.72;1696265;83;20835;-74
2022/02/25 06:29:42;;;;;;;3.55;1.27;;;;;;;2.57;69.25;100653.97;1695708;84;20985;-73
2022/02/25 06:32:08;;;;;;;4.35;1.15;;;;;;;2.63;69.27;100654.45;1689781;83;21402;-73
2022/02/25 06:34:35;;;;;;;6.45;1.30;;;;;;;2.71;69.29;100660.55;1698150;83;20892;-74
2022/02/25 06:37:01;;;;;;;4.22;1.05;;;;;;;2.80;69.31;100661.12;1701931;82;21424;-75
2022/02/25 06:39:27;;;;;;;1.82;0.90;;;;;;;2.88;69.31;100672.31;1693466;83;21509;-74
2022/02/25 06:41:53;;;;;;;6.55;1.00;;;;;;;2.97;69.34;100672.47;1691010;83;21426;-74
2022/02/25 06:44:20;;;;;;;3.05;0.98;;;;;;;3.06;69.39;100676.44;1692219;83;20928;-73
2022/02/25 06:46:46;;;;;;;5.58;1.02;;;;;;;3.20;69.43;100681.31;1694545;83;20995;-73
2022/02/25 06:49:12;;;;;;;4.53;1.60;;;;;;;3.30;69.43;100681.89;1688089;83;20875;-74
2022/02/25 06:51:38;;;;;;;4.83;1.52;;;;;;;3.46;69.49;100685.52;1693906;83;20911;-74
2022/02/25 06:54:05;;;;;;;4.58;1.20;;;;;;;3.56;69.42;100691.20;1686289;83;20927;-74
2022/02/25 06:56:31;;;;;;;6.55;2.67;;;;;;;3.62;69.38;100700.66;1689875;83;20946;-74
2022/02/25 06:58:57;;;;;;;5.62;2.90;;;;;;;3.64;69.41;100706.20;1696210;83;20962;-74
2022/02/25 07:01:25;;;;;;;10.03;2.83;;;;;;;3.66;69.42;100701.10;1675366;84;21029;-74
2022/02/25 07:03:51;;;;;;;5.58;2.50;;;;;;;3.69;69.46;100710.09;1695803;83;20875;-74
2022/02/25 07:06:17;;;;;;;5.23;1.50;;;;;;;3.70;69.41;100695.61;1695100;84;20851;-74
2022/02/25 07:08:43;;;;;;;7.15;1.80;;;;;;;3.68;69.40;100705.81;1694677;84;20935;-74
2022/02/25 07:11:09;;;;;;;3.37;1.30;;;;;;;3.71;69.49;100703.30;1697722;83;20880;-74
2022/02/25 07:13:35;;;;;;;5.33;1.45;;;;;;;3.81;69.51;100715.80;1684012;82;20918;-74
2022/02/25 07:16:02;;;;;;;5.87;1.95;;;;;;;3.87;69.49;100715.45;1692772;84;196337;-73
2022/02/25 07:18:30;;;;;;;6.28;1.45;;;;;;;3.91;69.48;100723.61;1673710;84;20933;-74
2022/02/25 07:20:56;;;;;;;11.00;2.37;;;;;;;3.95;69.50;100727.92;1673113;84;20962;-74
2022/02/25 07:23:22;;;;;;;5.77;1.87;;;;;;;4.02;69.56;100728.00;1695712;84;22017;-74
2022/02/25 07:25:48;;;;;;;7.00;1.70;;;;;;;4.14;69.59;100725.59;1698817;84;20923;-74
2022/02/25 07:28:20;;;;;;;6.12;1.57;;;;;;;4.28;69.63;100734.26;1688494;84;20891;-74
2022/02/25 07:30:46;;;;;;;4.47;1.60;;;;;;;4.51;69.69;100731.95;1674661;84;20918;-74
2022/02/25 07:33:12;;;;;;;5.33;1.60;;;;;;;4.74;69.64;100730.88;1699592;83;20938;-73
2022/02/25 07:35:39;;;;;;;6.90;1.57;;;;;;;4.92;69.64;100736.17;1690001;83;20903;-74
2022/02/25 07:38:06;;;;;;;4.92;1.82;;;;;;;5.15;69.63;100740.22;1684022;84;21790;-73
2022/02/25 07:40:32;;;;;;;5.58;1.22;;;;;;;5.34;69.54;100740.77;1699964;83;20867;-73
2022/02/25 07:42:58;;;;;;;4.67;1.30;;;;;;;5.48;69.46;100740.86;1694414;83;23823;-74
2022/02/25 07:45:26;;;;;;;8.40;1.27;;;;;;;5.61;69.55;100747.79;1697708;84;20939;-74
2022/02/25 07:47:58;;;;;;;4.10;1.30;;;;;;;5.78;69.67;100754.27;1694901;84;20871;-74
2022/02/25 07:50:24;;;;;;;4.45;1.40;;;;;;;5.88;69.59;100754.77;1688399;84;20906;-74
2022/02/25 07:52:50;;;;;;;8.80;1.73;;;;;;;5.94;69.54;100750.55;1691395;84;21568;-75
2022/02/25 07:55:16;;;;;;;9.15;2.37;;;;;;;6.10;69.36;100758.33;1699585;83;21285;-75
2022/02/25 07:57:42;;;;;;;8.30;3.20;;;;;;;6.07;69.54;100759.59;1700279;83;20994;-75
2022/02/25 08:00:12;;;;;;;8.08;2.67;;;;;;;6.11;69.52;100763.89;1699920;83;21480;-75
2022/02/25 08:02:39;;;;;;;5.05;1.60;;;;;;;6.17;69.60;100769.91;1694090;84;20974;-74
2022/02/25 08:05:06;;;;;;;3.72;1.95;;;;;;;6.36;69.78;100766.97;1695703;82;20883;-74
2022/02/25 08:07:32;;;;;;;;;;;;;;;6.47;69.71;100761.44;1694290;82;20989;-74
2022/02/25 08:09:58;;;;;;;4.08;1.20;;;;;;;6.55;69.41;100762.33;1698918;84;20197;-74
2022/02/25 08:12:25;;;;;;;5.95;1.77;;;;;;;6.59;69.71;100778.60;1690744;84;26717;-74
2022/02/25 08:14:53;;;;;;;6.30;1.37;;;;;;;6.60;69.58;100785.03;1700095;82;25231;-75
2022/02/25 08:17:21;;;;;;;4.83;1.95;;;;;;;6.66;69.67;100789.33;1674420;82;123582;-76
2022/02/25 08:19:48;;;;;;;6.47;2.05;;;;;;;6.76;69.63;100790.22;1661067;85;20911;-74
2022/02/25 08:22:14;;;;;;;7.77;2.10;;;;;;;6.87;69.65;100782.92;1663121;85;20930;-74
2022/02/25 08:24:41;;;;;;;7.97;2.55;;;;;;;6.96;69.54;100797.08;1669046;84;21322;-74
2022/02/25 08:27:07;;;;;;;5.17;1.80;;;;;;;7.00;69.33;100792.80;1674631;85;20950;-75
2022/02/25 08:29:33;;;;;;;8.18;1.77;;;;;;;6.97;69.23;100805.65;1663125;85;21029;-74
2022/02/25 08:31:59;;;;;;;8.03;1.77;;;;;;;6.97;69.33;100806.51;1668608;84;22507;-74
2022/02/25 08:34:25;;;;;;;5.83;1.57;;;;;;;6.99;69.11;100802.66;1669219;85;20982;-74
2022/02/25 08:36:55;;;;;;;8.33;1.87;;;;;;;6.84;68.80;100801.34;1661029;85;20874;-74
2022/02/25 08:39:19;;;;;;;6.67;1.70;;;;;;;6.77;68.80;100813.31;1667142;85;20918;-75
2022/02/25 08:41:45;;;;;;;7.90;1.70;;;;;;;6.62;68.64;100812.87;1657336;85;21762;-74
2022/02/25 08:44:11;;;;;;;8.20;1.83;;;;;;;6.49;68.77;100800.83;1659918;85;21014;-74
2022/02/25 08:46:37;;;;;;;7.63;1.73;;;;;;;6.40;68.90;100810.22;1670762;85;20930;-74
2022/02/25 08:49:04;;;;;;;8.55;2.83;;;;;;;6.42;68.99;100805.52;1670250;85;20913;-74
2022/02/25 08:51:30;;;;;;;5.40;3.00;;;;;;;6.43;68.55;100802.09;1666035;85;20942;-74
2022/02/25 08:53:56;;;;;;;7.72;2.72;;;;;;;6.38;68.71;100815.34;1663753;85;20926;-73
2022/02/25 08:56:26;;;;;;;6.43;2.27;;;;;;;6.35;68.61;100817.04;1669242;84;20914;-73
2022/02/25 08:58:52;;;;;;;8.18;1.98;;;;;;;6.27;68.52;100821.71;1670591;84;20902;-73
2022/02/25 09:01:19;;;;;;;4.90;1.40;;;;;;;6.26;68.60;100825.56;1662940;85;20981;-74
2022/02/25 09:03:45;;;;;;;6.00;2.10;;;;;;;6.24;68.49;100830.69;1665356;85;20939;-74
2022/02/25 09:06:14;;;;;;;5.57;1.83;;;;;;;6.21;68.31;100822.14;1665493;85;20946;-74
2022/02/25 09:08:41;;;;;;;8.85;1.87;;;;;;;6.18;68.35;100829.83;1671010;84;21119;-75
2022/02/25 09:11:08;;;;;;;6.80;1.90;;;;;;;6.13;68.33;100823.80;1669023;85;20962;-74
2022/02/25 09:13:34;;;;;;;7.17;2.12;;;;;;;6.08;68.22;100828.05;1672833;83;21010;-75
2022/02/25 09:16:00;;;;;;;7.00;2.12;;;;;;;6.06;68.24;100834.47;1670005;85;20942;-74
2022/02/25 09:18:26;;;;;;;10.37;2.10;;;;;;;6.10;68.29;100821.22;1672389;84;21767;-74
2022/02/25 09:20:52;;;;;;;6.67;1.77;;;;;;;6.15;68.18;100824.67;1670220;84;20946;-73
2022/02/25 09:23:18;;;;;;;5.08;1.77;;;;;;;6.16;68.09;100837.94;1666468;85;21638;-74
2022/02/25 09:25:45;;;;;;;6.95;1.87;;;;;;;6.13;67.94;100838.78;1667896;85;20968;-74
2022/02/25 09:28:12;;;;;;;8.57;1.77;;;;;;;6.13;67.70;100837.92;1668055;85;21029;-74
2022/02/25 09:30:39;;;;;;;7.50;1.90;;;;;;;6.13;67.70;100837.92;1665853;85;20997;-73
2022/02/25 09:33:05;;;;;;;6.65;1.62;;;;;;;6.08;67.62;100846.03;1663759;84;26542;-73
2022/02/25 09:35:32;;;;;;;5.40;1.55;;;;;;;6.02;67.79;100852.41;1665899;85;21419;-74
2022/02/25 09:37:58;;;;;;;7.95;2.00;;;;;;;6.01;67.67;100849.40;1638839;85;20997;-74
2022/02/25 09:40:25;;;;;;;10.75;1.98;;;;;;;5.96;67.56;100848.95;1635129;86;20937;-74
2022/02/25 09:42:51;;;;;;;9.58;1.77;;;;;;;5.95;67.64;100856.64;1636150;86;20886;-74
2022/02/25 09:45:18;;;;;;;6.80;1.70;;;;;;;5.99;67.52;100848.11;1638513;86;20932;-74
2022/02/25 09:47:45;;;;;;;2.83;1.40;;;;;;;6.00;67.48;100852.39;1669993;85;21004;-74
2022/02/25 09:50:20;;;;;;;9.05;2.00;;;;;;;6.00;67.50;100856.67;1666181;85;21101;-74
2022/02/25 09:52:46;;;;;;;9.38;1.87;;;;;;;5.97;67.41;100850.66;1669997;84;21391;-74
2022/02/25 09:55:26;;;;;;;8.33;2.50;;;;;;;6.00;67.51;100856.24;1671909;85;20954;-74
2022/02/25 09:57:54;;;;;;;5.58;1.75;;;;;;;6.06;67.59;100870.83;1670371;85;21004;-74
2022/02/25 10:00:21;;;;;;;5.33;1.30;;;;;;;6.20;67.43;100866.22;1631256;85;20924;-74
2022/02/25 10:02:51;;;;;;;3.20;1.37;;;;;;;6.34;67.53;100865.41;1635209;86;20949;-75
2022/02/25 10:05:22;;;;;;;7.67;1.65;;;;;;;6.49;67.44;100866.34;1617123;87;20949;-74
2022/02/25 10:07:49;;;;;;;3.42;1.45;;;;;;;6.68;67.02;100859.57;1668273;85;20946;-73
2022/02/25 10:10:18;;;;;;;8.60;1.87;;;;;;;6.89;67.36;100864.76;1659363;85;20950;-74
2022/02/25 10:12:47;;;;;;;9.50;2.80;;;;;;;7.07;67.32;100860.09;1669825;85;20954;-74
2022/02/25 10:15:15;;;;;;;7.58;2.50;;;;;;;7.12;67.04;100887.10;1664132;84;21245;-74
2022/02/25 10:17:41;;;;;;;5.72;2.37;;;;;;;7.10;67.01;100881.09;1646506;85;21035;-74
2022/02/25 10:20:08;;;;;;;5.72;1.80;;;;;;;7.06;66.81;100882.80;1636471;85;20953;-74
2022/02/25 10:22:36;;;;;;;;;;;;;;;7.03;66.84;100864.80;1664597;85;20915;-74
2022/02/25 10:25:09;;;;;;;8.08;1.82;;;;;;;7.03;66.52;100878.94;1665123;84;20450;-74
2022/02/25 10:27:43;;;;;;;7.37;2.27;;;;;;;7.03;66.66;100874.22;1663962;85;20913;-74
2022/02/25 10:30:16;;;;;;;7.95;1.60;;;;;;;7.05;66.76;100882.38;1661067;85;20928;-74
2022/02/25 10:32:49;;;;;;;5.80;1.75;;;;;;;7.10;66.67;100899.95;1664580;85;20890;-74
2022/02/25 10:35:33;;;;;;;5.37;1.90;;;;;;;7.05;66.55;100895.23;1664570;85;20973;-74
2022/02/25 10:38:19;;;;;;;7.75;1.65;;;;;;;6.96;66.47;100880.63;1656406;85;20882;-74
2022/02/25 10:40:49;;;;;;;5.67;1.62;;;;;;;6.94;66.46;100884.05;1662599;85;20919;-74
2022/02/25 10:43:24;;;;;;;4.62;1.27;;;;;;;6.95;66.54;100875.06;1667225;85;21004;-74
2022/02/25 10:46:03;;;;;;;8.60;2.08;;;;;;;7.00;66.48;100878.92;1660911;85;20917;-74
2022/02/25 10:48:33;;;;;;;15.43;9.03;;;;;;;7.07;66.47;100886.23;1667169;85;20914;-74
2022/02/25 10:51:06;;;;;;;6.40;5.12;;;;;;;7.08;66.20;100891.37;1666293;85;20930;-74
2022/02/25 10:53:43;;;;;;;9.80;6.25;;;;;;;7.01;66.04;100894.78;1665398;85;20989;-74
2022/02/25 10:56:15;;;;;;;12.35;6.35;;;;;;;6.93;66.16;100895.19;1633939;87;20921;-74
2022/02/25 10:58:51;;;;;;;13.30;5.72;;;;;;;6.88;66.17;100891.31;1661684;84;20859;-74
2022/02/25 11:01:36;;;;;;;8.40;4.72;;;;;;;6.90;66.21;100897.75;1666289;85;20863;-74
2022/02/25 11:04:11;;;;;;;7.03;4.60;;;;;;;6.89;66.14;100887.89;1662575;84;20925;-74
2022/02/25 11:06:39;;;;;;;10.38;4.17;;;;;;;6.88;66.12;100897.73;1653638;84;38122;-74
2022/02/25 11:09:09;;;;;;;5.10;2.37;;;;;;;6.90;65.39;100879.33;1664170;84;20906;-74
2022/02/25 11:11:36;;;;;;;8.57;3.37;;;;;;;6.86;65.70;100893.02;1666296;84;21456;-74
2022/02/25 11:14:08;;;;;;;10.38;3.55;;;;;;;6.80;65.76;100895.99;1660300;85;21002;-75
2022/02/25 11:16:37;;;;;;;4.75;1.50;;;;;;;6.73;65.76;100902.85;1665261;85;21222;-75
2022/02/25 11:19:04;;;;;;;8.85;2.90;;;;;;;6.69;65.68;100905.40;1662678;85;20917;-75
2022/02/25 11:21:33;;;;;;;6.33;2.30;;;;;;;6.69;65.77;100907.97;1665858;85;20937;-75
2022/02/25 11:23:59;;;;;;;;;;;;;;;6.71;65.79;100904.98;1664728;85;20925;-75
2022/02/25 11:26:25;;;;;;;4.33;1.72;;;;;;;6.75;65.53;100899.00;1661601;85;20094;-75
2022/02/25 11:28:52;;;;;;;10.05;2.58;;;;;;;6.78;65.55;100905.41;1660838;84;20957;-75
2022/02/25 11:31:27;;;;;;;4.72;1.50;;;;;;;6.78;65.56;100906.27;1665908;85;26332;-74
2022/02/25 11:33:55;;;;;;;6.78;2.58;;;;;;;6.83;65.50;100911.42;1668941;84;21361;-74
2022/02/25 11:36:41;;;;;;;7.03;2.58;;;;;;;6.87;65.54;100904.16;1661297;84;20905;-75
2022/02/25 11:39:26;;;;;;;7.75;3.92;;;;;;;6.95;65.53;100908.48;1652859;85;22577;-74
2022/02/25 11:41:57;;;;;;;8.03;3.65;;;;;;;7.09;65.54;100898.23;1655293;85;21568;-73
2022/02/25 11:44:24;;;;;;;5.95;3.70;;;;;;;7.19;65.45;100900.41;1659576;85;21390;-73